createdAt,value
2023-03-01T00:01:42.130Z,101793.27
2023-03-01T00:04:09.905Z,101793.28
2023-03-01T00:06:38.364Z,101804.43
2023-03-01T00:09:06.710Z,101817.73
2023-03-01T00:11:35.623Z,101819.56
2023-03-01T00:14:05.966Z,101819.48
2023-03-01T00:16:41.444Z,101815.08
2023-03-01T00:19:14.052Z,101809.17
2023-03-01T00:21:42.149Z,101805.28
2023-03-01T00:24:10.640Z,101794.59
2023-03-01T00:26:38.982Z,101796.30
2023-03-01T00:29:06.884Z,101799.45
2023-03-01T00:31:35.846Z,101795.73
2023-03-01T00:34:05.665Z,101793.92
2023-03-01T00:36:36.945Z,101793.64
2023-03-01T00:39:08.561Z,101792.79
2023-03-01T00:41:36.274Z,101788.77
2023-03-01T00:44:04.628Z,101791.23
2023-03-01T00:46:33.480Z,101786.40
2023-03-01T00:49:03.119Z,101783.32
2023-03-01T00:51:31.449Z,101779.61
2023-03-01T00:54:02.208Z,101772.71
2023-03-01T00:56:31.253Z,101762.65
2023-03-01T00:58:59.433Z,101756.73
2023-03-01T01:01:33.025Z,101753.36
2023-03-01T01:04:04.513Z,101748.33
2023-03-01T01:06:36.186Z,101746.20
2023-03-01T01:09:07.568Z,101744.27
2023-03-01T01:11:37.446Z,101735.70
2023-03-01T01:14:05.523Z,101743.04
2023-03-01T01:16:33.785Z,101749.77
2023-03-01T01:19:02.457Z,101746.54
2023-03-01T01:21:30.446Z,101747.96
2023-03-01T01:23:58.563Z,101744.40
2023-03-01T01:26:31.978Z,101741.61
2023-03-01T01:29:01.103Z,101743.28
2023-03-01T01:31:29.846Z,101741.95
2023-03-01T01:33:59.625Z,101734.73
2023-03-01T01:36:28.556Z,101731.59
2023-03-01T01:38:57.229Z,101734.46
2023-03-01T01:41:26.449Z,101731.53
2023-03-01T01:44:19.167Z,101722.04
2023-03-01T01:47:14.033Z,101718.84
2023-03-01T01:49:48.401Z,101718.36
2023-03-01T01:52:23.566Z,101716.05
2023-03-01T01:55:03.285Z,101710.11
2023-03-01T01:57:41.715Z,101709.98
2023-03-01T02:00:14.250Z,101705.15
2023-03-01T02:02:44.180Z,101705.84
2023-03-01T02:05:30.218Z,101701.73
2023-03-01T02:07:59.919Z,101695.07
2023-03-01T02:10:29.124Z,101693.21
2023-03-01T02:12:57.092Z,101694.05
2023-03-01T02:15:25.257Z,101692.91
2023-03-01T02:17:54.360Z,101697.84
2023-03-01T02:20:53.223Z,101699.39
2023-03-01T02:23:21.155Z,101695.52
2023-03-01T02:26:25.930Z,101696.61
2023-03-01T02:28:53.929Z,101703.03
2023-03-01T02:31:41.675Z,101700.20
2023-03-01T02:34:17.107Z,101704.77
2023-03-01T02:36:57.167Z,101704.70
2023-03-01T02:39:30.753Z,101702.30
2023-03-01T02:41:59.940Z,101697.56
2023-03-01T02:44:27.745Z,101697.99
2023-03-01T02:46:59.105Z,101694.73
2023-03-01T02:49:33.480Z,101691.41
2023-03-01T02:52:47.213Z,101687.09
2023-03-01T02:55:19.124Z,101687.69
2023-03-01T02:57:51.681Z,101685.77
2023-03-01T03:00:27.737Z,101682.36
2023-03-01T03:02:57.927Z,101681.71
2023-03-01T03:05:29.763Z,101675.23
2023-03-01T03:08:01.176Z,101677.78
2023-03-01T03:10:33.270Z,101676.73
2023-03-01T03:13:07.029Z,101673.80
2023-03-01T03:15:39.439Z,101676.84
2023-03-01T03:18:11.116Z,101675.63
2023-03-01T03:20:41.619Z,101673.31
2023-03-01T03:23:10.138Z,101673.71
2023-03-01T03:25:38.812Z,101675.36
2023-03-01T03:28:11.087Z,101671.66
2023-03-01T03:30:41.230Z,101666.55
2023-03-01T03:33:13.117Z,101663.55
2023-03-01T03:35:47.903Z,101664.31
2023-03-01T03:38:18.255Z,101662.31
2023-03-01T03:40:49.640Z,101661.52
2023-03-01T03:43:23.244Z,101653.54
2023-03-01T03:45:52.416Z,101646.95
2023-03-01T03:48:20.592Z,101642.60
2023-03-01T03:50:53.957Z,101635.67
2023-03-01T03:53:24.386Z,101636.27
2023-03-01T03:55:52.910Z,101629.09
2023-03-01T03:58:24.274Z,101622.12
2023-03-01T04:00:54.903Z,101619.40
2023-03-01T04:03:24.657Z,101624.52
2023-03-01T04:05:52.580Z,101626.61
2023-03-01T04:08:22.280Z,101628.67
2023-03-01T04:10:53.549Z,101629.38
2023-03-01T04:13:23.520Z,101627.98
2023-03-01T04:15:51.764Z,101626.06
2023-03-01T04:18:21.600Z,101621.94
2023-03-01T04:20:49.618Z,101620.05
2023-03-01T04:23:22.747Z,101618.52
2023-03-01T04:25:56.681Z,101617.55
2023-03-01T04:28:37.315Z,101608.02
2023-03-01T04:31:15.085Z,101611.04
2023-03-01T04:33:45.741Z,101616.49
2023-03-01T04:36:15.555Z,101623.45
2023-03-01T04:38:43.443Z,101626.41
2023-03-01T04:41:12.873Z,101626.27
2023-03-01T04:43:40.704Z,101633.85
2023-03-01T04:46:13.335Z,101632.15
2023-03-01T04:48:44.890Z,101631.48
2023-03-01T04:51:16.571Z,101633.56
2023-03-01T04:53:45.403Z,101628.36
2023-03-01T04:56:14.832Z,101623.89
2023-03-01T04:58:42.825Z,101624.27
2023-03-01T05:01:17.572Z,101613.57
2023-03-01T05:03:47.502Z,101610.09
2023-03-01T05:06:16.356Z,101607.68
2023-03-01T05:08:44.843Z,101601.23
2023-03-01T05:11:13.151Z,101600.68
2023-03-01T05:13:41.527Z,101599.70
2023-03-01T05:16:13.363Z,101587.90
2023-03-01T05:18:41.901Z,101593.09
2023-03-01T05:21:13.393Z,101594.39
2023-03-01T05:23:41.802Z,101587.83
2023-03-01T05:26:25.819Z,101585.44
2023-03-01T05:28:59.682Z,101585.64
2023-03-01T05:31:28.584Z,101594.17
2023-03-01T05:33:56.229Z,101599.79
2023-03-01T05:36:23.844Z,101604.36
2023-03-01T05:38:52.023Z,101607.04
2023-03-01T05:41:19.763Z,101607.04
2023-03-01T05:43:47.371Z,101608.77
2023-03-01T05:46:16.210Z,101611.70
2023-03-01T05:48:44.640Z,101613.90
2023-03-01T05:51:13.037Z,101620.68
2023-03-01T05:53:40.705Z,101623.24
2023-03-01T05:56:08.643Z,101627.94
2023-03-01T05:58:36.278Z,101633.29
2023-03-01T06:01:04.027Z,101632.81
2023-03-01T06:03:31.701Z,101635.19
2023-03-01T06:05:59.662Z,101636.84
2023-03-01T06:08:28.351Z,101632.06
2023-03-01T06:10:56.798Z,101625.88
2023-03-01T06:13:25.368Z,101629.72
2023-03-01T06:15:53.185Z,101633.02
2023-03-01T06:18:20.991Z,101634.94
2023-03-01T06:20:57.014Z,101635.21
2023-03-01T06:23:25.078Z,101637.22
2023-03-01T06:25:53.253Z,101637.10
2023-03-01T06:28:20.909Z,101640.33
2023-03-01T06:30:48.645Z,101639.25
2023-03-01T06:33:16.349Z,101638.63
2023-03-01T06:35:44.178Z,101635.48
2023-03-01T06:38:11.926Z,101635.98
2023-03-01T06:40:39.585Z,101635.85
2023-03-01T06:43:08.566Z,101635.55
2023-03-01T06:45:36.385Z,101632.30
2023-03-01T06:48:08.553Z,101626.73
2023-03-01T06:50:37.009Z,101625.63
2023-03-01T06:53:05.590Z,101626.99
2023-03-01T06:55:33.448Z,101623.35
2023-03-01T06:58:03.229Z,101625.60
2023-03-01T07:00:31.413Z,101628.70
2023-03-01T07:03:01.408Z,101626.10
2023-03-01T07:05:30.551Z,101625.38
2023-03-01T07:07:58.477Z,101625.52
2023-03-01T07:10:26.230Z,101624.38
2023-03-01T07:12:58.522Z,101626.65
2023-03-01T07:15:28.017Z,101623.52
2023-03-01T07:17:57.071Z,101621.20
2023-03-01T07:20:26.235Z,101621.89
2023-03-01T07:22:56.123Z,101622.66
2023-03-01T07:25:23.761Z,101626.31
2023-03-01T07:27:53.495Z,101620.55
2023-03-01T07:30:22.387Z,101620.12
2023-03-01T07:32:50.473Z,101619.13
2023-03-01T07:35:18.821Z,101615.39
2023-03-01T07:37:46.716Z,101612.27
2023-03-01T07:40:14.631Z,101612.07
2023-03-01T07:42:42.445Z,101613.55
2023-03-01T07:45:11.114Z,101611.09
2023-03-01T07:47:39.788Z,101606.44
2023-03-01T07:50:08.094Z,101603.01
2023-03-01T07:52:35.744Z,101607.10
2023-03-01T07:55:03.696Z,101597.55
2023-03-01T07:57:31.408Z,101588.58
2023-03-01T07:59:59.034Z,101584.34
2023-03-01T08:02:26.659Z,101581.86
2023-03-01T08:04:54.261Z,101584.56
2023-03-01T08:07:21.963Z,101587.67
2023-03-01T08:09:49.896Z,101586.00
2023-03-01T08:12:17.865Z,101588.04
2023-03-01T08:14:45.644Z,101586.93
2023-03-01T08:17:15.329Z,101588.96
2023-03-01T08:19:43.842Z,101591.50
2023-03-01T08:22:11.774Z,101585.05
2023-03-01T08:24:39.451Z,101585.84
2023-03-01T08:27:07.163Z,101588.09
2023-03-01T08:29:35.168Z,101587.89
2023-03-01T08:32:02.991Z,101593.36
2023-03-01T08:34:32.152Z,101589.89
2023-03-01T08:36:59.887Z,101582.64
2023-03-01T08:39:28.220Z,101582.38
2023-03-01T08:41:56.018Z,101578.82
2023-03-01T08:44:23.711Z,101584.52
2023-03-01T08:46:52.426Z,101583.59
2023-03-01T08:49:21.509Z,101584.33
2023-03-01T08:51:49.288Z,101587.01
2023-03-01T08:54:20.914Z,101584.35
2023-03-01T08:56:49.517Z,101581.41
2023-03-01T08:59:18.449Z,101579.45
2023-03-01T09:01:46.399Z,101574.25
2023-03-01T09:04:16.095Z,101577.14
2023-03-01T09:06:44.178Z,101580.91
2023-03-01T09:09:16.937Z,101579.34
2023-03-01T09:11:47.159Z,101582.02
2023-03-01T09:14:15.106Z,101590.27
2023-03-01T09:16:43.421Z,101587.45
2023-03-01T09:19:12.042Z,101589.45
2023-03-01T09:21:41.276Z,101589.98
2023-03-01T09:24:15.737Z,101587.58
2023-03-01T09:26:43.822Z,101592.39
2023-03-01T09:29:11.486Z,101584.99
2023-03-01T09:31:39.635Z,101583.30
2023-03-01T09:34:08.199Z,101585.20
2023-03-01T09:36:36.492Z,101584.90
2023-03-01T09:39:06.862Z,101585.57
2023-03-01T09:41:45.988Z,101580.48
2023-03-01T09:44:19.308Z,101578.69
2023-03-01T09:46:47.457Z,101572.80
2023-03-01T09:49:22.277Z,101570.02
2023-03-01T09:51:57.244Z,101563.59
2023-03-01T09:54:25.133Z,101564.05
2023-03-01T09:57:20.352Z,101562.71
2023-03-01T10:00:12.944Z,101560.09
2023-03-01T10:02:53.608Z,101558.43
2023-03-01T10:05:53.574Z,101555.01
2023-03-01T10:09:01.785Z,101554.63
2023-03-01T10:11:33.342Z,101552.44
2023-03-01T10:14:15.003Z,101549.49
2023-03-01T10:17:10.594Z,101543.08
2023-03-01T10:19:42.499Z,101542.33
2023-03-01T10:22:29.397Z,101541.88
2023-03-01T10:25:00.859Z,101542.00
2023-03-01T10:27:47.660Z,101534.48
2023-03-01T10:30:33.426Z,101526.13
2023-03-01T10:33:03.057Z,101514.95
2023-03-01T10:35:34.958Z,101504.80
2023-03-01T10:38:11.846Z,101504.56
2023-03-01T10:41:08.010Z,101501.79
2023-03-01T10:43:44.828Z,101497.85
2023-03-01T10:46:26.611Z,101498.09
2023-03-01T10:49:23.955Z,101500.09
2023-03-01T10:51:53.573Z,101491.22
2023-03-01T10:54:31.159Z,101492.70
2023-03-01T10:57:01.588Z,101493.98
2023-03-01T10:59:38.081Z,101496.05
2023-03-01T11:02:26.886Z,101491.77
2023-03-01T11:04:57.506Z,101490.25
2023-03-01T11:07:25.254Z,101489.83
2023-03-01T11:09:53.457Z,101489.84
2023-03-01T11:12:22.187Z,101483.19
2023-03-01T11:14:52.468Z,101481.34
2023-03-01T11:17:31.631Z,101480.27
2023-03-01T11:20:15.806Z,101478.28
2023-03-01T11:22:53.340Z,101471.23
2023-03-01T11:25:26.028Z,101472.14
2023-03-01T11:27:55.860Z,101474.45
2023-03-01T11:30:27.638Z,101468.30
2023-03-01T11:33:06.583Z,101467.48
2023-03-01T11:35:39.042Z,101467.48
2023-03-01T11:38:13.072Z,101463.75
2023-03-01T11:40:45.553Z,101458.86
2023-03-01T11:43:25.099Z,101454.36
2023-03-01T11:46:11.845Z,101449.83
2023-03-01T11:48:49.918Z,101449.90
2023-03-01T11:51:26.631Z,101449.80
2023-03-01T11:54:00.253Z,101451.18
2023-03-01T11:56:42.166Z,101451.35
2023-03-01T11:59:21.858Z,101448.02
2023-03-01T12:02:08.545Z,101447.27
2023-03-01T12:05:03.880Z,101450.63
2023-03-01T12:08:14.707Z,101452.19
2023-03-01T12:10:58.096Z,101455.71
2023-03-01T12:13:50.448Z,101457.52
2023-03-01T12:16:47.171Z,101456.59
2023-03-01T12:19:52.627Z,101458.37
2023-03-01T12:22:31.232Z,101452.35
2023-03-01T12:25:17.484Z,101448.00
2023-03-01T12:28:19.184Z,101448.40
2023-03-01T12:31:07.314Z,101452.09
2023-03-01T12:33:43.894Z,101453.02
2023-03-01T12:36:39.838Z,101450.52
2023-03-01T12:39:25.090Z,101446.36
2023-03-01T12:42:08.353Z,101447.55
2023-03-01T12:44:56.456Z,101451.35
2023-03-01T12:47:36.505Z,101448.39
2023-03-01T12:50:19.740Z,101443.36
2023-03-01T12:52:52.917Z,101444.80
2023-03-01T12:55:29.472Z,101436.46
2023-03-01T12:58:01.509Z,101438.27
2023-03-01T13:00:37.362Z,101437.63
2023-03-01T13:03:29.258Z,101438.94
2023-03-01T13:06:09.138Z,101434.02
2023-03-01T13:09:02.901Z,101430.55
2023-03-01T13:11:30.893Z,101429.11
2023-03-01T13:14:26.389Z,101429.41
2023-03-01T13:16:55.081Z,101429.16
2023-03-01T13:19:25.994Z,101431.04
2023-03-01T13:23:22.471Z,101422.48
2023-03-01T13:25:59.687Z,101419.98
2023-03-01T13:28:45.948Z,101417.30
2023-03-01T13:31:16.295Z,101419.73
2023-03-01T13:33:52.797Z,101412.89
2023-03-01T13:36:33.581Z,101408.10
2023-03-01T13:39:04.594Z,101405.76
2023-03-01T13:41:44.226Z,101405.56
2023-03-01T13:44:24.760Z,101403.45
2023-03-01T13:47:18.432Z,101406.01
2023-03-01T13:50:03.657Z,101405.83
2023-03-01T13:52:38.012Z,101401.84
2023-03-01T13:55:14.783Z,101400.61
2023-03-01T13:57:46.808Z,101393.76
2023-03-01T14:00:33.840Z,101393.53
2023-03-01T14:03:07.051Z,101394.52
2023-03-01T14:05:37.063Z,101397.42
2023-03-01T14:21:02.185Z,101390.42
2023-03-01T14:23:30.573Z,101390.73
2023-03-01T14:25:58.988Z,101387.20
2023-03-01T14:28:27.319Z,101385.48
2023-03-01T14:30:57.541Z,101381.94
2023-03-01T14:33:26.688Z,101381.77
2023-03-01T14:36:01.764Z,101378.93
2023-03-01T14:38:41.380Z,101376.95
2023-03-01T14:41:18.890Z,101370.23
2023-03-01T14:44:02.190Z,101372.70
2023-03-01T14:46:40.884Z,101366.71
2023-03-01T14:49:20.018Z,101366.27
2023-03-01T14:51:54.598Z,101365.43
2023-03-01T14:54:27.796Z,101358.46
2023-03-01T14:57:00.783Z,101355.98
2023-03-01T14:59:29.520Z,101354.83
2023-03-01T15:01:59.205Z,101356.19
2023-03-01T15:04:28.592Z,101352.55
2023-03-01T15:07:05.797Z,101352.11
2023-03-01T15:09:36.211Z,101356.38
2023-03-01T15:12:30.080Z,101355.52
2023-03-01T15:15:04.175Z,101353.21
2023-03-01T15:17:39.154Z,101349.45
2023-03-01T15:20:17.710Z,101349.34
2023-03-01T15:22:49.731Z,101345.23
2023-03-01T15:25:23.853Z,101343.23
2023-03-01T15:27:54.489Z,101341.05
2023-03-01T15:30:27.456Z,101343.24
2023-03-01T15:33:21.828Z,101342.13
2023-03-01T15:35:54.536Z,101340.13
2023-03-01T15:38:55.596Z,101340.27
2023-03-01T15:41:48.274Z,101337.14
2023-03-01T15:44:41.638Z,101332.95
2023-03-01T15:47:27.517Z,101345.14
2023-03-01T15:50:02.338Z,101349.72
2023-03-01T15:52:41.579Z,101345.69
2023-03-01T15:55:18.698Z,101341.77
2023-03-01T15:57:47.302Z,101339.31
2023-03-01T16:00:16.225Z,101332.25
2023-03-01T16:02:45.315Z,101333.50
2023-03-01T16:05:21.830Z,101331.77
2023-03-01T16:07:49.884Z,101327.46
2023-03-01T16:10:18.574Z,101328.48
2023-03-01T16:12:48.379Z,101330.08
2023-03-01T16:15:23.931Z,101326.41
2023-03-01T16:17:53.026Z,101328.90
2023-03-01T16:20:28.659Z,101335.35
2023-03-01T16:23:02.473Z,101336.98
2023-03-01T16:25:31.088Z,101340.12
2023-03-01T16:28:01.678Z,101339.31
2023-03-01T16:30:29.527Z,101337.60
2023-03-01T16:32:57.204Z,101330.48
2023-03-01T16:35:25.007Z,101333.11
2023-03-01T16:37:54.904Z,101333.21
2023-03-01T16:40:25.651Z,101336.55
2023-03-01T16:42:56.238Z,101336.86
2023-03-01T16:45:28.972Z,101332.30
2023-03-01T16:47:56.842Z,101327.67
2023-03-01T16:50:24.515Z,101332.42
2023-03-01T16:52:52.309Z,101335.10
2023-03-01T16:55:19.993Z,101339.45
2023-03-01T16:57:47.726Z,101339.19
2023-03-01T17:00:15.758Z,101339.05
2023-03-01T17:02:43.511Z,101338.46
2023-03-01T17:05:12.798Z,101340.41
2023-03-01T17:07:40.889Z,101343.99
2023-03-01T17:10:10.942Z,101345.84
2023-03-01T17:12:39.145Z,101347.95
2023-03-01T17:15:07.719Z,101345.44
2023-03-01T17:17:35.680Z,101345.85
2023-03-01T17:20:04.944Z,101348.67
2023-03-01T17:22:32.849Z,101352.45
2023-03-01T17:25:01.202Z,101355.42
2023-03-01T17:27:29.554Z,101356.45
2023-03-01T17:29:57.418Z,101358.79
2023-03-01T17:32:25.318Z,101356.10
2023-03-01T17:34:53.269Z,101356.96
2023-03-01T17:37:21.229Z,101358.83
2023-03-01T17:39:48.925Z,101355.87
2023-03-01T17:42:17.015Z,101352.79
2023-03-01T17:44:44.890Z,101354.54
2023-03-01T17:47:12.774Z,101358.70
2023-03-01T17:49:42.988Z,101360.48
2023-03-01T17:52:10.686Z,101358.16
2023-03-01T17:54:38.386Z,101357.23
2023-03-01T17:57:06.645Z,101356.92
2023-03-01T17:59:37.143Z,101355.29
2023-03-01T18:02:04.985Z,101354.55
2023-03-01T18:04:32.926Z,101357.23
2023-03-01T18:07:01.001Z,101356.03
2023-03-01T18:09:28.914Z,101357.21
2023-03-01T18:11:57.175Z,101360.27
2023-03-01T18:14:25.904Z,101356.05
2023-03-01T18:16:53.857Z,101356.20
2023-03-01T18:19:21.886Z,101354.50
2023-03-01T18:21:49.751Z,101349.54
2023-03-01T18:24:17.390Z,101351.10
2023-03-01T18:26:45.279Z,101351.15
2023-03-01T18:29:12.928Z,101350.42
2023-03-01T18:31:40.572Z,101352.24
2023-03-01T18:34:11.792Z,101352.73
2023-03-01T18:36:41.448Z,101350.41
2023-03-01T18:39:09.196Z,101345.51
2023-03-01T18:41:37.660Z,101342.15
2023-03-01T18:44:06.540Z,101335.79
2023-03-01T18:46:37.777Z,101334.83
2023-03-01T18:49:07.474Z,101338.76
2023-03-01T18:51:35.766Z,101335.48
2023-03-01T18:54:04.002Z,101331.52
2023-03-01T18:56:33.360Z,101331.70
2023-03-01T18:59:02.433Z,101330.48
2023-03-01T19:01:33.013Z,101333.23
2023-03-01T19:04:02.884Z,101338.69
2023-03-01T19:06:34.237Z,101334.89
2023-03-01T19:09:02.893Z,101331.52
2023-03-01T19:11:33.487Z,101332.13
2023-03-01T19:14:02.341Z,101333.96
2023-03-01T19:16:32.621Z,101335.21
2023-03-01T19:19:03.698Z,101336.33
2023-03-01T19:21:32.814Z,101336.45
2023-03-01T19:24:02.452Z,101338.30
2023-03-01T19:26:31.789Z,101346.80
2023-03-01T19:29:00.378Z,101350.21
2023-03-01T19:31:30.704Z,101357.58
2023-03-01T19:34:10.519Z,101362.69
2023-03-01T19:36:43.275Z,101367.79
2023-03-01T19:39:13.633Z,101371.41
2023-03-01T19:41:43.106Z,101370.24
2023-03-01T19:44:11.716Z,101369.00
2023-03-01T19:46:39.912Z,101367.66
2023-03-01T19:49:08.355Z,101368.71
2023-03-01T19:51:38.820Z,101372.39
2023-03-01T19:54:08.016Z,101373.02
2023-03-01T19:56:35.985Z,101371.59
2023-03-01T19:59:04.962Z,101371.08
2023-03-01T20:01:34.884Z,101371.41
2023-03-01T20:04:03.866Z,101377.36
2023-03-01T20:06:32.126Z,101379.39
2023-03-01T20:09:08.955Z,101372.52
2023-03-01T20:11:43.708Z,101371.98
2023-03-01T20:14:12.344Z,101369.92
2023-03-01T20:16:40.390Z,101368.43
2023-03-01T20:19:08.558Z,101369.02
2023-03-01T20:21:36.329Z,101366.69
2023-03-01T20:24:04.350Z,101373.64
2023-03-01T20:26:33.254Z,101378.50
2023-03-01T20:29:01.100Z,101383.70
2023-03-01T20:31:29.884Z,101384.34
2023-03-01T20:33:59.753Z,101380.71
2023-03-01T20:36:28.177Z,101382.73
2023-03-01T20:38:56.491Z,101384.52
2023-03-01T20:41:26.709Z,101388.69
2023-03-01T20:43:56.461Z,101385.45
2023-03-01T20:46:26.962Z,101386.66
2023-03-01T20:48:54.953Z,101385.67
2023-03-01T20:51:22.654Z,101378.91
2023-03-01T20:53:50.719Z,101379.38
2023-03-01T20:56:20.578Z,101382.77
2023-03-01T20:59:09.323Z,101384.30
2023-03-01T21:01:39.874Z,101385.71
2023-03-01T21:04:07.695Z,101380.41
2023-03-01T21:06:36.311Z,101375.78
2023-03-01T21:09:04.789Z,101369.71
2023-03-01T21:11:32.550Z,101370.61
2023-03-01T21:14:00.778Z,101369.27
2023-03-01T21:16:28.671Z,101370.80
2023-03-01T21:19:01.660Z,101373.48
2023-03-01T21:21:29.515Z,101375.79
2023-03-01T21:23:57.309Z,101370.95
2023-03-01T21:26:27.132Z,101371.69
2023-03-01T21:28:56.853Z,101369.19
2023-03-01T21:31:31.924Z,101371.50
2023-03-01T21:34:04.053Z,101369.73
2023-03-01T21:36:33.297Z,101364.49
2023-03-01T21:39:02.384Z,101365.11
2023-03-01T21:41:32.900Z,101367.41
2023-03-01T21:44:03.109Z,101365.22
2023-03-01T21:46:36.684Z,101364.29
2023-03-01T21:49:05.830Z,101358.53
2023-03-01T21:51:34.167Z,101361.35
2023-03-01T21:54:02.331Z,101361.91
2023-03-01T21:56:34.440Z,101360.95
2023-03-01T21:59:02.401Z,101359.24
2023-03-01T22:01:30.320Z,101360.06
2023-03-01T22:04:00.244Z,101357.77
2023-03-01T22:06:35.163Z,101356.13
2023-03-01T22:09:08.989Z,101358.84
2023-03-01T22:11:39.550Z,101362.92
2023-03-01T22:14:08.269Z,101355.64
2023-03-01T22:16:36.821Z,101357.51
2023-03-01T22:19:06.417Z,101351.93
2023-03-01T22:21:35.098Z,101350.90
2023-03-01T22:24:03.996Z,101350.79
2023-03-01T22:26:38.332Z,101351.38
2023-03-01T22:29:12.679Z,101350.81
2023-03-01T22:31:41.433Z,101350.85
2023-03-01T22:34:10.276Z,101346.38
2023-03-01T22:36:39.351Z,101348.16
2023-03-01T22:39:07.558Z,101345.52
2023-03-01T22:41:43.142Z,101341.61
2023-03-01T22:44:20.644Z,101337.05
2023-03-01T22:46:48.838Z,101335.09
2023-03-01T22:49:17.303Z,101342.00
2023-03-01T22:51:47.510Z,101340.93
2023-03-01T22:54:20.405Z,101341.89
2023-03-01T22:56:48.592Z,101339.96
2023-03-01T22:59:23.110Z,101339.53
2023-03-01T23:01:52.757Z,101340.26
2023-03-01T23:04:22.013Z,101340.48
2023-03-01T23:06:51.557Z,101342.60
2023-03-01T23:09:23.463Z,101343.55
2023-03-01T23:11:52.189Z,101343.06
2023-03-01T23:14:21.420Z,101342.65
2023-03-01T23:16:50.476Z,101340.60
2023-03-01T23:19:18.933Z,101344.61
2023-03-01T23:21:49.992Z,101343.48
2023-03-01T23:24:19.326Z,101345.08
2023-03-01T23:26:51.848Z,101347.75
2023-03-01T23:29:20.286Z,101347.79
2023-03-01T23:31:48.849Z,101346.42
2023-03-01T23:34:16.547Z,101344.25
2023-03-01T23:36:45.277Z,101344.90
2023-03-01T23:39:14.267Z,101338.98
2023-03-01T23:41:42.184Z,101335.33
2023-03-01T23:44:16.039Z,101338.12
2023-03-01T23:46:44.974Z,101342.16
2023-03-01T23:49:14.805Z,101342.86
2023-03-01T23:51:50.137Z,101350.05
2023-03-01T23:54:20.159Z,101347.36
2023-03-01T23:56:47.959Z,101343.10
2023-03-01T23:59:18.489Z,101344.48
